sensor_id;sensor_type;location;lat;lon;timestamp;P1;durP1;ratioP1;P2;durP2;ratioP2
29026;SDS011;16120;48.608;9.092;2023-07-20T00:02:25;102.47;;;6.43;;
29026;SDS011;16120;48.608;9.092;2023-07-20T00:06:20;102.67;;;7.50;;
29026;SDS011;16120;48.608;9.092;2023-07-20T00:10:15;103.07;;;7.07;;
29026;SDS011;16120;48.608;9.092;2023-07-20T00:14:12;103.10;;;7.77;;
29026;SDS011;16120;48.608;9.092;2023-07-20T00:18:07;103.07;;;6.80;;
29026;SDS011;16120;48.608;9.092;2023-07-20T00:22:02;102.23;;;7.20;;
29026;SDS011;16120;48.608;9.092;2023-07-20T00:25:58;102.87;;;7.17;;
29026;SDS011;16120;48.608;9.092;2023-07-20T00:29:54;102.57;;;7.03;;
29026;SDS011;16120;48.608;9.092;2023-07-20T00:33:49;102.77;;;7.03;;
29026;SDS011;16120;48.608;9.092;2023-07-20T00:37:44;102.87;;;6.90;;
29026;SDS011;16120;48.608;9.092;2023-07-20T00:41:40;102.97;;;6.83;;
29026;SDS011;16120;48.608;9.092;2023-07-20T00:45:36;103.20;;;6.80;;
29026;SDS011;16120;48.608;9.092;2023-07-20T00:49:32;103.47;;;7.10;;
29026;SDS011;16120;48.608;9.092;2023-07-20T00:53:27;103.17;;;6.93;;
29026;SDS011;16120;48.608;9.092;2023-07-20T00:57:23;103.80;;;7.80;;
29026;SDS011;16120;48.608;9.092;2023-07-20T01:01:21;103.37;;;7.13;;
29026;SDS011;16120;48.608;9.092;2023-07-20T01:05:17;103.60;;;7.77;;
29026;SDS011;16120;48.608;9.092;2023-07-20T01:09:13;103.30;;;7.00;;
29026;SDS011;16120;48.608;9.092;2023-07-20T01:13:09;103.97;;;8.20;;
29026;SDS011;16120;48.608;9.092;2023-07-20T01:17:06;104.07;;;7.60;;
29026;SDS011;16120;48.608;9.092;2023-07-20T01:21:02;103.57;;;6.93;;
29026;SDS011;16120;48.608;9.092;2023-07-20T01:25:05;103.80;;;7.30;;
29026;SDS011;16120;48.608;9.092;2023-07-20T01:29:11;104.07;;;7.90;;
29026;SDS011;16120;48.608;9.092;2023-07-20T01:33:14;104.07;;;7.43;;
29026;SDS011;16120;48.608;9.092;2023-07-20T01:37:10;104.20;;;7.93;;
29026;SDS011;16120;48.608;9.092;2023-07-20T01:41:06;104.80;;;7.90;;
29026;SDS011;16120;48.608;9.092;2023-07-20T01:45:01;104.10;;;7.17;;
29026;SDS011;16120;48.608;9.092;2023-07-20T01:48:58;104.13;;;7.30;;
29026;SDS011;16120;48.608;9.092;2023-07-20T01:52:53;104.37;;;7.70;;
29026;SDS011;16120;48.608;9.092;2023-07-20T01:56:49;104.07;;;7.30;;
29026;SDS011;16120;48.608;9.092;2023-07-20T02:00:44;104.67;;;7.20;;
29026;SDS011;16120;48.608;9.092;2023-07-20T02:04:40;105.10;;;7.33;;
29026;SDS011;16120;48.608;9.092;2023-07-20T02:08:35;104.37;;;6.80;;
29026;SDS011;16120;48.608;9.092;2023-07-20T02:12:31;104.97;;;7.17;;
29026;SDS011;16120;48.608;9.092;2023-07-20T02:16:26;105.07;;;7.13;;
29026;SDS011;16120;48.608;9.092;2023-07-20T02:20:22;105.80;;;8.43;;
29026;SDS011;16120;48.608;9.092;2023-07-20T02:24:18;105.33;;;7.63;;
29026;SDS011;16120;48.608;9.092;2023-07-20T02:28:13;105.13;;;7.50;;
29026;SDS011;16120;48.608;9.092;2023-07-20T02:32:09;105.17;;;7.30;;
29026;SDS011;16120;48.608;9.092;2023-07-20T02:36:05;105.40;;;7.57;;
29026;SDS011;16120;48.608;9.092;2023-07-20T02:40:00;105.77;;;7.50;;
29026;SDS011;16120;48.608;9.092;2023-07-20T02:43:56;105.37;;;7.13;;
29026;SDS011;16120;48.608;9.092;2023-07-20T02:47:51;105.77;;;7.37;;
29026;SDS011;16120;48.608;9.092;2023-07-20T02:51:47;105.67;;;7.63;;
29026;SDS011;16120;48.608;9.092;2023-07-20T02:55:43;105.23;;;7.37;;
29026;SDS011;16120;48.608;9.092;2023-07-20T02:59:38;105.60;;;7.57;;
29026;SDS011;16120;48.608;9.092;2023-07-20T03:03:33;106.10;;;7.67;;
29026;SDS011;16120;48.608;9.092;2023-07-20T03:07:29;106.27;;;7.53;;
29026;SDS011;16120;48.608;9.092;2023-07-20T03:11:25;106.03;;;7.80;;
29026;SDS011;16120;48.608;9.092;2023-07-20T03:15:20;106.17;;;7.57;;
29026;SDS011;16120;48.608;9.092;2023-07-20T03:19:15;105.90;;;7.60;;
29026;SDS011;16120;48.608;9.092;2023-07-20T03:23:12;106.30;;;7.67;;
29026;SDS011;16120;48.608;9.092;2023-07-20T03:27:07;106.80;;;8.07;;
29026;SDS011;16120;48.608;9.092;2023-07-20T03:31:02;106.20;;;7.60;;
29026;SDS011;16120;48.608;9.092;2023-07-20T03:34:57;106.67;;;7.53;;
29026;SDS011;16120;48.608;9.092;2023-07-20T03:38:54;106.10;;;7.83;;
29026;SDS011;16120;48.608;9.092;2023-07-20T03:42:49;106.47;;;7.43;;
29026;SDS011;16120;48.608;9.092;2023-07-20T03:46:44;106.30;;;7.50;;
29026;SDS011;16120;48.608;9.092;2023-07-20T03:50:39;106.87;;;8.00;;
29026;SDS011;16120;48.608;9.092;2023-07-20T03:54:36;107.00;;;7.67;;
29026;SDS011;16120;48.608;9.092;2023-07-20T03:58:31;107.07;;;7.47;;
29026;SDS011;16120;48.608;9.092;2023-07-20T04:02:26;107.27;;;7.83;;
29026;SDS011;16120;48.608;9.092;2023-07-20T04:06:22;106.40;;;7.60;;
29026;SDS011;16120;48.608;9.092;2023-07-20T04:10:18;106.87;;;7.57;;
29026;SDS011;16120;48.608;9.092;2023-07-20T04:14:14;107.07;;;8.00;;
29026;SDS011;16120;48.608;9.092;2023-07-20T04:18:09;107.57;;;8.40;;
29026;SDS011;16120;48.608;9.092;2023-07-20T04:22:04;105.80;;;8.00;;
29026;SDS011;16120;48.608;9.092;2023-07-20T04:26:03;107.13;;;7.55;;
29026;SDS011;16120;48.608;9.092;2023-07-20T04:29:58;106.87;;;7.67;;
29026;SDS011;16120;48.608;9.092;2023-07-20T04:33:54;108.00;;;8.00;;
29026;SDS011;16120;48.608;9.092;2023-07-20T04:37:49;107.07;;;7.63;;
29026;SDS011;16120;48.608;9.092;2023-07-20T04:41:45;107.40;;;7.40;;
29026;SDS011;16120;48.608;9.092;2023-07-20T04:45:40;106.97;;;7.57;;
29026;SDS011;16120;48.608;9.092;2023-07-20T04:49:36;106.43;;;7.53;;
29026;SDS011;16120;48.608;9.092;2023-07-20T04:53:31;106.67;;;7.80;;
29026;SDS011;16120;48.608;9.092;2023-07-20T04:57:27;106.60;;;7.60;;
29026;SDS011;16120;48.608;9.092;2023-07-20T05:01:23;106.80;;;8.10;;
29026;SDS011;16120;48.608;9.092;2023-07-20T05:05:18;106.20;;;7.30;;
29026;SDS011;16120;48.608;9.092;2023-07-20T05:09:13;106.37;;;7.33;;
29026;SDS011;16120;48.608;9.092;2023-07-20T05:13:10;106.27;;;7.63;;
29026;SDS011;16120;48.608;9.092;2023-07-20T05:17:05;106.27;;;7.87;;
29026;SDS011;16120;48.608;9.092;2023-07-20T05:21:00;106.07;;;7.40;;
29026;SDS011;16120;48.608;9.092;2023-07-20T05:24:56;105.87;;;7.77;;
29026;SDS011;16120;48.608;9.092;2023-07-20T05:28:52;105.60;;;7.55;;
29026;SDS011;16120;48.608;9.092;2023-07-20T05:32:47;105.63;;;7.70;;
29026;SDS011;16120;48.608;9.092;2023-07-20T05:36:43;105.97;;;7.50;;
29026;SDS011;16120;48.608;9.092;2023-07-20T05:40:39;105.27;;;7.20;;
29026;SDS011;16120;48.608;9.092;2023-07-20T05:44:36;105.67;;;7.40;;
29026;SDS011;16120;48.608;9.092;2023-07-20T05:48:31;105.73;;;7.47;;
29026;SDS011;16120;48.608;9.092;2023-07-20T05:52:26;105.57;;;7.80;;
29026;SDS011;16120;48.608;9.092;2023-07-20T05:56:22;105.70;;;8.10;;
29026;SDS011;16120;48.608;9.092;2023-07-20T06:00:19;104.88;;;7.50;;
29026;SDS011;16120;48.608;9.092;2023-07-20T06:04:14;104.97;;;7.40;;
29026;SDS011;16120;48.608;9.092;2023-07-20T06:08:09;104.88;;;7.70;;
29026;SDS011;16120;48.608;9.092;2023-07-20T06:12:05;104.57;;;7.13;;
29026;SDS011;16120;48.608;9.092;2023-07-20T06:16:02;104.27;;;7.07;;
29026;SDS011;16120;48.608;9.092;2023-07-20T06:19:57;104.47;;;7.60;;
29026;SDS011;16120;48.608;9.092;2023-07-20T06:23:53;104.07;;;6.90;;
29026;SDS011;16120;48.608;9.092;2023-07-20T06:27:49;103.97;;;6.87;;
29026;SDS011;16120;48.608;9.092;2023-07-20T06:31:46;103.90;;;7.10;;
29026;SDS011;16120;48.608;9.092;2023-07-20T06:35:41;103.77;;;7.07;;
29026;SDS011;16120;48.608;9.092;2023-07-20T06:39:36;103.20;;;7.17;;
29026;SDS011;16120;48.608;9.092;2023-07-20T06:43:31;104.10;;;7.13;;
29026;SDS011;16120;48.608;9.092;2023-07-20T06:47:28;103.33;;;7.47;;
29026;SDS011;16120;48.608;9.092;2023-07-20T06:51:23;103.37;;;7.17;;
29026;SDS011;16120;48.608;9.092;2023-07-20T06:55:18;102.87;;;7.27;;
29026;SDS011;16120;48.608;9.092;2023-07-20T06:59:13;102.77;;;7.77;;
29026;SDS011;16120;48.608;9.092;2023-07-20T07:03:10;102.85;;;7.45;;
29026;SDS011;16120;48.608;9.092;2023-07-20T07:07:05;102.27;;;6.93;;
29026;SDS011;16120;48.608;9.092;2023-07-20T07:11:00;102.47;;;7.30;;
29026;SDS011;16120;48.608;9.092;2023-07-20T07:14:56;102.57;;;7.20;;
29026;SDS011;16120;48.608;9.092;2023-07-20T07:18:52;102.50;;;7.30;;
29026;SDS011;16120;48.608;9.092;2023-07-20T07:22:49;102.07;;;7.07;;
29026;SDS011;16120;48.608;9.092;2023-07-20T07:26:45;101.80;;;7.40;;
29026;SDS011;16120;48.608;9.092;2023-07-20T07:30:40;100.40;;;7.17;;
29026;SDS011;16120;48.608;9.092;2023-07-20T07:34:37;101.90;;;7.37;;
29026;SDS011;16120;48.608;9.092;2023-07-20T07:38:35;101.70;;;7.40;;
29026;SDS011;16120;48.608;9.092;2023-07-20T07:42:30;101.50;;;7.20;;
29026;SDS011;16120;48.608;9.092;2023-07-20T07:46:25;102.00;;;7.57;;
29026;SDS011;16120;48.608;9.092;2023-07-20T07:50:22;100.77;;;7.60;;
29026;SDS011;16120;48.608;9.092;2023-07-20T07:54:17;100.57;;;7.50;;
29026;SDS011;16120;48.608;9.092;2023-07-20T07:58:12;100.40;;;7.50;;
29026;SDS011;16120;48.608;9.092;2023-07-20T08:02:08;101.30;;;7.20;;
29026;SDS011;16120;48.608;9.092;2023-07-20T08:06:04;98.87;;;7.13;;
29026;SDS011;16120;48.608;9.092;2023-07-20T08:09:59;99.17;;;6.77;;
29026;SDS011;16120;48.608;9.092;2023-07-20T08:13:55;99.47;;;6.50;;
29026;SDS011;16120;48.608;9.092;2023-07-20T08:17:50;99.40;;;6.60;;
29026;SDS011;16120;48.608;9.092;2023-07-20T08:21:46;97.63;;;6.70;;
29026;SDS011;16120;48.608;9.092;2023-07-20T08:25:42;98.27;;;6.83;;
29026;SDS011;16120;48.608;9.092;2023-07-20T08:29:37;100.03;;;6.33;;
29026;SDS011;16120;48.608;9.092;2023-07-20T08:33:32;99.07;;;6.07;;
29026;SDS011;16120;48.608;9.092;2023-07-20T08:37:29;97.20;;;6.80;;
29026;SDS011;16120;48.608;9.092;2023-07-20T08:41:24;99.20;;;6.63;;
29026;SDS011;16120;48.608;9.092;2023-07-20T08:45:20;99.50;;;6.03;;
29026;SDS011;16120;48.608;9.092;2023-07-20T08:49:17;99.27;;;6.23;;
29026;SDS011;16120;48.608;9.092;2023-07-20T08:53:13;98.77;;;6.17;;
29026;SDS011;16120;48.608;9.092;2023-07-20T08:57:09;99.53;;;6.27;;
29026;SDS011;16120;48.608;9.092;2023-07-20T09:01:07;98.97;;;6.20;;
29026;SDS011;16120;48.608;9.092;2023-07-20T09:05:02;98.72;;;6.07;;
29026;SDS011;16120;48.608;9.092;2023-07-20T09:09:00;99.73;;;6.40;;
29026;SDS011;16120;48.608;9.092;2023-07-20T09:12:55;98.20;;;6.43;;
29026;SDS011;16120;48.608;9.092;2023-07-20T09:16:51;97.67;;;6.57;;
29026;SDS011;16120;48.608;9.092;2023-07-20T09:20:47;98.50;;;6.47;;
29026;SDS011;16120;48.608;9.092;2023-07-20T09:24:44;98.17;;;6.23;;
29026;SDS011;16120;48.608;9.092;2023-07-20T09:28:41;96.80;;;6.20;;
29026;SDS011;16120;48.608;9.092;2023-07-20T09:32:39;97.83;;;6.60;;
29026;SDS011;16120;48.608;9.092;2023-07-20T09:36:35;96.97;;;6.03;;
29026;SDS011;16120;48.608;9.092;2023-07-20T09:40:37;96.47;;;6.20;;
29026;SDS011;16120;48.608;9.092;2023-07-20T09:44:32;97.77;;;5.43;;
29026;SDS011;16120;48.608;9.092;2023-07-20T09:48:27;96.27;;;6.10;;
29026;SDS011;16120;48.608;9.092;2023-07-20T09:52:23;96.70;;;5.80;;
29026;SDS011;16120;48.608;9.092;2023-07-20T09:56:20;96.17;;;5.90;;
29026;SDS011;16120;48.608;9.092;2023-07-20T10:00:16;96.97;;;6.10;;
29026;SDS011;16120;48.608;9.092;2023-07-20T10:04:12;96.37;;;5.93;;
29026;SDS011;16120;48.608;9.092;2023-07-20T10:08:08;96.00;;;5.90;;
29026;SDS011;16120;48.608;9.092;2023-07-20T10:12:07;97.57;;;5.80;;
29026;SDS011;16120;48.608;9.092;2023-07-20T10:16:03;97.30;;;5.50;;
29026;SDS011;16120;48.608;9.092;2023-07-20T10:20:00;96.97;;;5.57;;
29026;SDS011;16120;48.608;9.092;2023-07-20T10:23:57;95.97;;;5.97;;
29026;SDS011;16120;48.608;9.092;2023-07-20T10:27:53;96.10;;;6.00;;
29026;SDS011;16120;48.608;9.092;2023-07-20T10:31:49;96.27;;;5.67;;
29026;SDS011;16120;48.608;9.092;2023-07-20T10:35:51;96.70;;;5.40;;
29026;SDS011;16120;48.608;9.092;2023-07-20T10:39:47;96.50;;;5.50;;
29026;SDS011;16120;48.608;9.092;2023-07-20T10:43:51;95.77;;;5.90;;
29026;SDS011;16120;48.608;9.092;2023-07-20T10:47:48;96.50;;;5.40;;
29026;SDS011;16120;48.608;9.092;2023-07-20T10:51:44;96.40;;;5.70;;
29026;SDS011;16120;48.608;9.092;2023-07-20T10:55:39;96.37;;;5.37;;
29026;SDS011;16120;48.608;9.092;2023-07-20T10:59:39;96.27;;;5.53;;
29026;SDS011;16120;48.608;9.092;2023-07-20T11:03:34;96.93;;;5.40;;
29026;SDS011;16120;48.608;9.092;2023-07-20T11:07:37;96.83;;;5.10;;
29026;SDS011;16120;48.608;9.092;2023-07-20T11:11:33;96.00;;;5.63;;
29026;SDS011;16120;48.608;9.092;2023-07-20T11:15:35;96.40;;;5.17;;
29026;SDS011;16120;48.608;9.092;2023-07-20T11:19:42;95.87;;;5.17;;
29026;SDS011;16120;48.608;9.092;2023-07-20T11:23:37;96.60;;;5.23;;
29026;SDS011;16120;48.608;9.092;2023-07-20T11:27:33;96.37;;;5.20;;
29026;SDS011;16120;48.608;9.092;2023-07-20T11:31:29;96.00;;;5.60;;
29026;SDS011;16120;48.608;9.092;2023-07-20T11:35:24;97.17;;;5.20;;
29026;SDS011;16120;48.608;9.092;2023-07-20T11:39:21;96.73;;;5.33;;
29026;SDS011;16120;48.608;9.092;2023-07-20T11:43:17;96.43;;;5.23;;
29026;SDS011;16120;48.608;9.092;2023-07-20T11:47:13;96.80;;;5.30;;
29026;SDS011;16120;48.608;9.092;2023-07-20T11:51:13;95.83;;;5.60;;
29026;SDS011;16120;48.608;9.092;2023-07-20T11:55:09;97.10;;;5.10;;
29026;SDS011;16120;48.608;9.092;2023-07-20T11:59:06;96.87;;;5.60;;
29026;SDS011;16120;48.608;9.092;2023-07-20T12:03:05;95.90;;;5.83;;
29026;SDS011;16120;48.608;9.092;2023-07-20T12:07:00;95.80;;;5.70;;
29026;SDS011;16120;48.608;9.092;2023-07-20T12:10:55;96.20;;;5.73;;
29026;SDS011;16120;48.608;9.092;2023-07-20T12:14:50;96.10;;;5.60;;
29026;SDS011;16120;48.608;9.092;2023-07-20T12:18:47;95.80;;;5.50;;
29026;SDS011;16120;48.608;9.092;2023-07-20T12:22:43;95.77;;;5.63;;
29026;SDS011;16120;48.608;9.092;2023-07-20T12:26:38;96.07;;;5.60;;
29026;SDS011;16120;48.608;9.092;2023-07-20T12:30:33;96.00;;;5.77;;
29026;SDS011;16120;48.608;9.092;2023-07-20T12:34:32;95.57;;;5.60;;
29026;SDS011;16120;48.608;9.092;2023-07-20T12:38:27;95.70;;;5.70;;
29026;SDS011;16120;48.608;9.092;2023-07-20T12:42:23;95.90;;;5.60;;
29026;SDS011;16120;48.608;9.092;2023-07-20T12:46:18;95.53;;;5.60;;
29026;SDS011;16120;48.608;9.092;2023-07-20T12:50:14;96.23;;;5.40;;
29026;SDS011;16120;48.608;9.092;2023-07-20T12:54:09;96.10;;;5.53;;
29026;SDS011;16120;48.608;9.092;2023-07-20T12:58:05;96.20;;;5.30;;
29026;SDS011;16120;48.608;9.092;2023-07-20T13:02:02;95.77;;;5.40;;
29026;SDS011;16120;48.608;9.092;2023-07-20T13:05:59;95.87;;;5.40;;
29026;SDS011;16120;48.608;9.092;2023-07-20T13:09:54;96.43;;;5.30;;
29026;SDS011;16120;48.608;9.092;2023-07-20T13:13:50;96.60;;;5.20;;
29026;SDS011;16120;48.608;9.092;2023-07-20T13:17:45;96.10;;;5.40;;
29026;SDS011;16120;48.608;9.092;2023-07-20T13:21:41;96.67;;;5.60;;
29026;SDS011;16120;48.608;9.092;2023-07-20T13:25:37;95.70;;;5.40;;
29026;SDS011;16120;48.608;9.092;2023-07-20T13:29:32;95.93;;;5.40;;
29026;SDS011;16120;48.608;9.092;2023-07-20T13:33:27;96.10;;;5.40;;
29026;SDS011;16120;48.608;9.092;2023-07-20T13:37:24;95.87;;;5.50;;
29026;SDS011;16120;48.608;9.092;2023-07-20T13:41:19;95.47;;;5.40;;
29026;SDS011;16120;48.608;9.092;2023-07-20T13:45:14;96.47;;;5.80;;
29026;SDS011;16120;48.608;9.092;2023-07-20T13:49:09;95.90;;;5.40;;
29026;SDS011;16120;48.608;9.092;2023-07-20T13:53:06;95.38;;;5.35;;
29026;SDS011;16120;48.608;9.092;2023-07-20T13:57:01;96.50;;;5.00;;
29026;SDS011;16120;48.608;9.092;2023-07-20T14:00:56;96.07;;;5.60;;
29026;SDS011;16120;48.608;9.092;2023-07-20T14:04:52;96.57;;;5.17;;
29026;SDS011;16120;48.608;9.092;2023-07-20T14:08:48;95.80;;;5.30;;
29026;SDS011;16120;48.608;9.092;2023-07-20T14:12:43;96.23;;;5.57;;
29026;SDS011;16120;48.608;9.092;2023-07-20T14:16:38;96.00;;;5.40;;
29026;SDS011;16120;48.608;9.092;2023-07-20T14:20:34;96.20;;;5.40;;
29026;SDS011;16120;48.608;9.092;2023-07-20T14:24:30;95.67;;;5.40;;
29026;SDS011;16120;48.608;9.092;2023-07-20T14:28:25;96.03;;;5.43;;
29026;SDS011;16120;48.608;9.092;2023-07-20T14:32:21;96.20;;;5.20;;
29026;SDS011;16120;48.608;9.092;2023-07-20T14:36:16;95.90;;;5.30;;
29026;SDS011;16120;48.608;9.092;2023-07-20T14:40:13;95.40;;;5.30;;
29026;SDS011;16120;48.608;9.092;2023-07-20T14:44:08;95.80;;;5.07;;
29026;SDS011;16120;48.608;9.092;2023-07-20T14:48:03;96.03;;;5.50;;
29026;SDS011;16120;48.608;9.092;2023-07-20T14:51:58;95.80;;;5.43;;
29026;SDS011;16120;48.608;9.092;2023-07-20T14:55:59;95.80;;;5.20;;
29026;SDS011;16120;48.608;9.092;2023-07-20T14:59:54;96.30;;;6.00;;
29026;SDS011;16120;48.608;9.092;2023-07-20T15:03:49;96.10;;;5.17;;
29026;SDS011;16120;48.608;9.092;2023-07-20T15:07:44;96.00;;;5.27;;
29026;SDS011;16120;48.608;9.092;2023-07-20T15:11:41;96.10;;;5.33;;
29026;SDS011;16120;48.608;9.092;2023-07-20T15:15:36;96.30;;;5.40;;
29026;SDS011;16120;48.608;9.092;2023-07-20T15:19:31;96.03;;;5.40;;
29026;SDS011;16120;48.608;9.092;2023-07-20T15:23:27;96.27;;;5.20;;
29026;SDS011;16120;48.608;9.092;2023-07-20T15:27:23;96.10;;;5.70;;
29026;SDS011;16120;48.608;9.092;2023-07-20T15:31:18;95.80;;;5.30;;
29026;SDS011;16120;48.608;9.092;2023-07-20T15:35:14;95.80;;;5.17;;
29026;SDS011;16120;48.608;9.092;2023-07-20T15:39:12;95.90;;;5.40;;
29026;SDS011;16120;48.608;9.092;2023-07-20T15:43:08;95.80;;;5.47;;
29026;SDS011;16120;48.608;9.092;2023-07-20T15:47:04;96.00;;;5.50;;
29026;SDS011;16120;48.608;9.092;2023-07-20T15:50:59;95.90;;;5.50;;
29026;SDS011;16120;48.608;9.092;2023-07-20T15:54:54;96.07;;;5.63;;
29026;SDS011;16120;48.608;9.092;2023-07-20T15:58:51;96.40;;;5.77;;
29026;SDS011;16120;48.608;9.092;2023-07-20T16:02:46;96.40;;;5.43;;
29026;SDS011;16120;48.608;9.092;2023-07-20T16:06:41;96.57;;;5.50;;
29026;SDS011;16120;48.608;9.092;2023-07-20T16:10:37;96.20;;;5.30;;
29026;SDS011;16120;48.608;9.092;2023-07-20T16:14:33;96.20;;;5.50;;
29026;SDS011;16120;48.608;9.092;2023-07-20T16:18:28;96.40;;;5.80;;
29026;SDS011;16120;48.608;9.092;2023-07-20T16:22:24;96.10;;;5.20;;
29026;SDS011;16120;48.608;9.092;2023-07-20T16:26:19;95.70;;;5.30;;
29026;SDS011;16120;48.608;9.092;2023-07-20T16:30:16;96.20;;;5.30;;
29026;SDS011;16120;48.608;9.092;2023-07-20T16:34:11;96.07;;;5.33;;
29026;SDS011;16120;48.608;9.092;2023-07-20T16:38:06;96.17;;;5.20;;
29026;SDS011;16120;48.608;9.092;2023-07-20T16:42:01;96.37;;;5.40;;
29026;SDS011;16120;48.608;9.092;2023-07-20T16:46:01;96.60;;;5.50;;
29026;SDS011;16120;48.608;9.092;2023-07-20T16:49:56;96.23;;;5.30;;
29026;SDS011;16120;48.608;9.092;2023-07-20T16:53:52;96.20;;;5.40;;
29026;SDS011;16120;48.608;9.092;2023-07-20T16:57:47;96.33;;;5.40;;
29026;SDS011;16120;48.608;9.092;2023-07-20T17:01:43;96.60;;;5.30;;
29026;SDS011;16120;48.608;9.092;2023-07-20T17:05:38;96.67;;;5.20;;
29026;SDS011;16120;48.608;9.092;2023-07-20T17:09:34;96.37;;;5.23;;
29026;SDS011;16120;48.608;9.092;2023-07-20T17:13:29;96.20;;;5.20;;
29026;SDS011;16120;48.608;9.092;2023-07-20T17:17:26;96.70;;;5.17;;
29026;SDS011;16120;48.608;9.092;2023-07-20T17:21:21;97.00;;;5.30;;
29026;SDS011;16120;48.608;9.092;2023-07-20T17:25:16;96.47;;;5.40;;
29026;SDS011;16120;48.608;9.092;2023-07-20T17:29:12;97.00;;;5.27;;
29026;SDS011;16120;48.608;9.092;2023-07-20T17:33:08;97.40;;;5.40;;
29026;SDS011;16120;48.608;9.092;2023-07-20T17:37:04;96.67;;;5.40;;
29026;SDS011;16120;48.608;9.092;2023-07-20T17:40:59;96.80;;;5.20;;
29026;SDS011;16120;48.608;9.092;2023-07-20T17:44:54;96.87;;;5.40;;
29026;SDS011;16120;48.608;9.092;2023-07-20T17:48:51;97.27;;;5.30;;
29026;SDS011;16120;48.608;9.092;2023-07-20T17:52:48;97.63;;;5.30;;
29026;SDS011;16120;48.608;9.092;2023-07-20T17:56:43;97.70;;;5.33;;
29026;SDS011;16120;48.608;9.092;2023-07-20T18:00:38;97.57;;;5.30;;
29026;SDS011;16120;48.608;9.092;2023-07-20T18:04:35;97.90;;;5.27;;
29026;SDS011;16120;48.608;9.092;2023-07-20T18:08:30;98.00;;;5.60;;
29026;SDS011;16120;48.608;9.092;2023-07-20T18:12:25;98.20;;;5.40;;
29026;SDS011;16120;48.608;9.092;2023-07-20T18:16:20;98.00;;;5.50;;
29026;SDS011;16120;48.608;9.092;2023-07-20T18:20:17;97.87;;;5.47;;
29026;SDS011;16120;48.608;9.092;2023-07-20T18:24:12;98.03;;;5.40;;
29026;SDS011;16120;48.608;9.092;2023-07-20T18:28:08;98.07;;;6.13;;
29026;SDS011;16120;48.608;9.092;2023-07-20T18:32:03;97.83;;;5.33;;
29026;SDS011;16120;48.608;9.092;2023-07-20T18:36:00;97.97;;;5.23;;
29026;SDS011;16120;48.608;9.092;2023-07-20T18:39:55;98.30;;;5.37;;
29026;SDS011;16120;48.608;9.092;2023-07-20T18:43:50;98.70;;;5.60;;
29026;SDS011;16120;48.608;9.092;2023-07-20T18:47:45;97.97;;;5.60;;
29026;SDS011;16120;48.608;9.092;2023-07-20T18:51:42;98.57;;;5.40;;
29026;SDS011;16120;48.608;9.092;2023-07-20T18:55:37;99.20;;;5.50;;
29026;SDS011;16120;48.608;9.092;2023-07-20T18:59:33;98.90;;;5.50;;
29026;SDS011;16120;48.608;9.092;2023-07-20T19:03:28;99.70;;;5.67;;
29026;SDS011;16120;48.608;9.092;2023-07-20T19:07:25;98.77;;;5.50;;
29026;SDS011;16120;48.608;9.092;2023-07-20T19:11:20;97.70;;;5.53;;
29026;SDS011;16120;48.608;9.092;2023-07-20T19:15:16;99.28;;;5.40;;
29026;SDS011;16120;48.608;9.092;2023-07-20T19:19:12;99.17;;;5.90;;
29026;SDS011;16120;48.608;9.092;2023-07-20T19:23:08;99.80;;;5.90;;
29026;SDS011;16120;48.608;9.092;2023-07-20T19:27:04;99.50;;;5.80;;
29026;SDS011;16120;48.608;9.092;2023-07-20T19:30:59;99.67;;;5.83;;
29026;SDS011;16120;48.608;9.092;2023-07-20T19:34:55;98.83;;;5.53;;
29026;SDS011;16120;48.608;9.092;2023-07-20T19:38:52;99.87;;;5.90;;
29026;SDS011;16120;48.608;9.092;2023-07-20T19:42:47;100.37;;;5.77;;
29026;SDS011;16120;48.608;9.092;2023-07-20T19:46:44;99.20;;;5.70;;
29026;SDS011;16120;48.608;9.092;2023-07-20T19:50:39;100.07;;;5.47;;
29026;SDS011;16120;48.608;9.092;2023-07-20T19:54:35;99.40;;;5.50;;
29026;SDS011;16120;48.608;9.092;2023-07-20T19:58:31;101.20;;;6.50;;
29026;SDS011;16120;48.608;9.092;2023-07-20T20:02:26;100.53;;;5.87;;
29026;SDS011;16120;48.608;9.092;2023-07-20T20:06:21;100.53;;;5.85;;
29026;SDS011;16120;48.608;9.092;2023-07-20T20:10:18;100.87;;;6.00;;
29026;SDS011;16120;48.608;9.092;2023-07-20T20:14:13;100.57;;;5.93;;
29026;SDS011;16120;48.608;9.092;2023-07-20T20:18:09;101.50;;;6.00;;
29026;SDS011;16120;48.608;9.092;2023-07-20T20:22:04;101.27;;;6.17;;
29026;SDS011;16120;48.608;9.092;2023-07-20T20:26:04;101.67;;;6.73;;
29026;SDS011;16120;48.608;9.092;2023-07-20T20:29:59;101.80;;;6.47;;
29026;SDS011;16120;48.608;9.092;2023-07-20T20:33:55;101.67;;;6.43;;
29026;SDS011;16120;48.608;9.092;2023-07-20T20:37:50;102.30;;;6.63;;
29026;SDS011;16120;48.608;9.092;2023-07-20T20:41:47;101.87;;;6.30;;
29026;SDS011;16120;48.608;9.092;2023-07-20T20:45:42;101.97;;;6.27;;
29026;SDS011;16120;48.608;9.092;2023-07-20T20:49:37;102.50;;;6.17;;
29026;SDS011;16120;48.608;9.092;2023-07-20T20:53:32;102.47;;;6.27;;
29026;SDS011;16120;48.608;9.092;2023-07-20T20:57:29;102.57;;;6.47;;
29026;SDS011;16120;48.608;9.092;2023-07-20T21:01:25;102.77;;;6.73;;
29026;SDS011;16120;48.608;9.092;2023-07-20T21:05:20;102.97;;;6.57;;
29026;SDS011;16120;48.608;9.092;2023-07-20T21:09:15;103.50;;;6.70;;
29026;SDS011;16120;48.608;9.092;2023-07-20T21:13:12;103.63;;;7.20;;
29026;SDS011;16120;48.608;9.092;2023-07-20T21:17:10;103.57;;;6.60;;
29026;SDS011;16120;48.608;9.092;2023-07-20T21:21:06;103.77;;;6.93;;
29026;SDS011;16120;48.608;9.092;2023-07-20T21:25:05;103.67;;;7.20;;
29026;SDS011;16120;48.608;9.092;2023-07-20T21:29:02;103.70;;;7.00;;
29026;SDS011;16120;48.608;9.092;2023-07-20T21:32:58;104.17;;;7.50;;
29026;SDS011;16120;48.608;9.092;2023-07-20T21:36:53;104.20;;;7.23;;
29026;SDS011;16120;48.608;9.092;2023-07-20T21:40:49;104.67;;;7.50;;
29026;SDS011;16120;48.608;9.092;2023-07-20T21:44:47;104.30;;;6.87;;
29026;SDS011;16120;48.608;9.092;2023-07-20T21:48:42;104.50;;;7.00;;
29026;SDS011;16120;48.608;9.092;2023-07-20T21:52:40;105.07;;;7.10;;
29026;SDS011;16120;48.608;9.092;2023-07-20T21:56:35;105.03;;;7.37;;
29026;SDS011;16120;48.608;9.092;2023-07-20T22:00:33;105.23;;;7.40;;
29026;SDS011;16120;48.608;9.092;2023-07-20T22:04:28;105.27;;;7.33;;
29026;SDS011;16120;48.608;9.092;2023-07-20T22:08:25;105.87;;;7.83;;
29026;SDS011;16120;48.608;9.092;2023-07-20T22:12:20;105.50;;;7.53;;
29026;SDS011;16120;48.608;9.092;2023-07-20T22:20:44;106.03;;;7.70;;
29026;SDS011;16120;48.608;9.092;2023-07-20T22:24:39;105.67;;;7.77;;
29026;SDS011;16120;48.608;9.092;2023-07-20T22:28:35;105.97;;;7.83;;
29026;SDS011;16120;48.608;9.092;2023-07-20T22:32:31;106.17;;;8.07;;
29026;SDS011;16120;48.608;9.092;2023-07-20T22:36:28;106.10;;;8.03;;
29026;SDS011;16120;48.608;9.092;2023-07-20T22:40:24;106.17;;;8.23;;
29026;SDS011;16120;48.608;9.092;2023-07-20T22:44:19;106.27;;;7.87;;
29026;SDS011;16120;48.608;9.092;2023-07-20T22:48:15;105.60;;;8.20;;
29026;SDS011;16120;48.608;9.092;2023-07-20T22:52:13;106.67;;;8.70;;
29026;SDS011;16120;48.608;9.092;2023-07-20T22:56:14;106.60;;;7.90;;
29026;SDS011;16120;48.608;9.092;2023-07-20T23:00:10;104.97;;;8.00;;
29026;SDS011;16120;48.608;9.092;2023-07-20T23:04:05;107.97;;;9.07;;
29026;SDS011;16120;48.608;9.092;2023-07-20T23:08:18;106.90;;;8.17;;
29026;SDS011;16120;48.608;9.092;2023-07-20T23:12:13;106.77;;;8.43;;
29026;SDS011;16120;48.608;9.092;2023-07-20T23:16:12;106.10;;;8.17;;